Time,TemperatureF,DewpointF,PressureIn,WindDirection,WindDirectionDegrees,WindSpeedMPH,WindSpeedGustMPH,Humidity,HourlyPrecipIn,Conditions,Clouds,dailyrainin,SoftwareType,DateUTC
2013-03-15 00:00:00,30.1,14.4,29.92,NW,322,0.0,10.6,51,0.00,,SCT120,0.00,VWS V14.00,2013-03-15 04:00:00,
2013-03-15 00:01:00,30.1,14.3,29.92,NW,322,0.0,10.6,51,0.00,,SCT120,0.00,VWS V14.00,2013-03-15 04:01:00,
2013-03-15 00:02:00,30.1,14.3,29.92,NW,322,0.0,10.6,51,0.00,,SCT120,0.00,VWS V14.00,2013-03-15 04:02:00,
2013-03-15 00:03:00,30.0,14.5,29.92,NW,322,0.0,10.6,52,0.00,,SCT120,0.00,VWS V14.00,2013-03-15 04:03:00,
2013-03-15 00:04:00,30.0,14.6,29.92,NW,322,0.0,10.6,52,0.00,,SCT120,0.00,VWS V14.00,2013-03-15 04:04:00,
2013-03-15 00:05:00,30.0,14.5,29.92,NW,322,0.0,10.6,52,0.00,,SCT120,0.00,VWS V14.00,2013-03-15 04:05:00,
2013-03-15 00:06:00,30.0,14.6,29.92,NW,322,0.0,10.6,52,0.00,,SCT120,0.00,VWS V14.00,2013-03-15 04:06:00,
2013-03-15 00:07:00,30.0,14.9,29.92,NW,322,0.0,10.6,53,0.00,,SCT120,0.00,VWS V14.00,2013-03-15 04:07:00,
2013-03-15 00:08:00,29.9,15.2,29.93,NW,322,0.0,10.6,54,0.00,,SCT120,0.00,VWS V14.00,2013-03-15 04:08:00,
2013-03-15 00:09:00,29.9,14.6,29.93,NW,322,0.0,10.6,52,0.00,,SCT120,0.00,VWS V14.00,2013-03-15 04:09:00,
2013-03-15 00:10:00,30.9,13.4,29.92,SW,217,2.9,6.8,48,0.00,,SCT120,0.00,VWS V14.00,2013-03-15 04:10:00,
2013-03-15 00:11:00,29.9,14.3,29.92,NW,322,0.0,0.0,52,0.00,,SCT120,0.00,VWS V14.00,2013-03-15 04:11:00,
2013-03-15 00:12:00,29.8,14.4,29.92,NW,322,0.0,0.0,52,0.00,,SCT120,0.00,VWS V14.00,2013-03-15 04:12:00,
2013-03-15 00:13:00,29.8,14.6,29.93,NW,322,0.0,0.0,53,0.00,,SCT120,0.00,VWS V14.00,2013-03-15 04:13:00,
2013-03-15 00:14:00,29.8,14.3,29.93,NW,322,0.0,0.0,52,0.00,,SCT120,0.00,VWS V14.00,2013-03-15 04:14:00,
2013-03-15 00:15:00,29.9,15.0,29.92,NW,322,0.0,0.0,53,0.00,,SCT120,0.00,VWS V14.00,2013-03-15 04:15:00,
2013-03-15 00:16:00,31.0,13.9,29.92,NE,41,0.0,7.8,49,0.00,,SCT120,0.00,VWS V14.00,2013-03-15 04:16:00,
2013-03-15 00:21:00,30.8,13.4,29.92,NNW,333,0.0,0.0,48,0.00,,SCT120,0.00,VWS V14.00,2013-03-15 04:21:00,
2013-03-15 00:26:00,30.8,14.1,29.92,NNE,21,6.3,9.9,50,0.00,,SCT120,0.00,VWS V14.00,2013-03-15 04:26:00,
2013-03-15 00:31:00,30.5,13.7,29.92,NNE,27,0.0,5.0,49,0.00,,SCT120,0.00,VWS V14.00,2013-03-15 04:31:00,
2013-03-15 00:36:00,30.4,13.5,29.92,WSW,249,8.6,11.2,49,0.00,,SCT120,0.00,VWS V14.00,2013-03-15 04:36:00,
2013-03-15 00:41:00,30.4,13.7,29.92,West,259,0.0,0.0,49,0.00,,SCT120,0.00,VWS V14.00,2013-03-15 04:41:00,
2013-03-15 00:46:00,30.3,13.6,29.92,NE,37,0.0,9.1,49,0.00,,SCT120,0.00,VWS V14.00,2013-03-15 04:46:00,
2013-03-15 00:51:00,30.2,14.0,29.92,SW,222,0.0,0.0,50,0.00,,SCT120,0.00,VWS V14.00,2013-03-15 04:51:00,
2013-03-15 00:56:00,30.2,14.3,29.92,West,260,0.0,10.6,51,0.00,,SCT120,0.00,VWS V14.00,2013-03-15 04:56:00,
2013-03-15 01:02:00,30.1,14.3,29.92,NW,322,0.0,10.6,51,0.00,,SCT120,0.00,VWS V14.00,2013-03-15 05:02:00,
2013-03-15 01:07:00,30.0,14.9,29.92,NW,322,0.0,10.6,53,0.00,,SCT120,0.00,VWS V14.00,2013-03-15 05:07:00,
2013-03-15 01:13:00,29.8,14.2,29.92,NW,322,0.0,0.0,52,0.00,,SCT120,0.00,VWS V14.00,2013-03-15 05:13:00,
2013-03-15 01:18:00,29.9,14.2,29.92,WNW,291,0.0,8.2,52,0.00,,SCT120,0.00,VWS V14.00,2013-03-15 05:18:00,
2013-03-15 01:23:00,29.9,14.9,29.92,WNW,291,0.0,0.0,53,0.00,,SCT120,0.00,VWS V14.00,2013-03-15 05:23:00,
2013-03-15 01:28:00,29.7,13.9,29.93,SSW,208,0.0,9.6,51,0.00,,SCT120,0.00,VWS V14.00,2013-03-15 05:28:00,
2013-03-15 01:33:00,29.9,15.0,29.93,SSW,208,0.0,0.0,53,0.00,,SCT120,0.00,VWS V14.00,2013-03-15 05:33:00,
2013-03-15 01:38:00,29.7,14.2,29.92,WNW,300,0.0,9.6,52,0.00,,SCT120,0.00,VWS V14.00,2013-03-15 05:38:00,
2013-03-15 01:43:00,29.9,14.8,29.93,WNW,300,0.0,0.0,53,0.00,,SCT120,0.00,VWS V14.00,2013-03-15 05:43:00,
2013-03-15 01:48:00,29.9,15.0,29.93,West,267,0.0,5.4,53,0.00,,SCT120,0.00,VWS V14.00,2013-03-15 05:48:00,
2013-03-15 01:53:00,29.8,14.8,29.94,West,280,6.9,8.6,53,0.00,,SCT120,0.00,VWS V14.00,2013-03-15 05:53:00,
2013-03-15 01:58:00,29.9,15.1,29.93,NNW,339,0.0,11.4,54,0.00,,SCT120,0.00,VWS V14.00,2013-03-15 05:58:00,
2013-03-15 02:03:00,29.7,14.9,29.93,West,274,0.0,0.0,54,0.00,,SCT120,0.00,VWS V14.00,2013-03-15 06:03:00,
2013-03-15 02:08:00,29.6,15.0,29.92,WNW,291,0.0,5.8,54,0.00,,SCT120,0.00,VWS V14.00,2013-03-15 06:08:00,
2013-03-15 02:13:00,29.7,16.1,29.93,WNW,291,0.0,0.0,56,0.00,,SCT120,0.00,VWS V14.00,2013-03-15 06:13:00,
2013-03-15 02:18:00,29.6,15.3,29.93,West,263,0.0,9.4,55,0.00,,SCT120,0.00,VWS V14.00,2013-03-15 06:18:00,
2013-03-15 02:23:00,29.5,15.2,29.93,West,263,0.0,0.0,55,0.00,,SCT120,0.00,VWS V14.00,2013-03-15 06:23:00,
2013-03-15 02:28:00,29.4,15.1,29.93,WNW,295,0.0,8.7,55,0.00,,SCT120,0.00,VWS V14.00,2013-03-15 06:28:00,
2013-03-15 02:33:00,29.3,14.9,29.93,WSW,257,0.0,5.2,54,0.00,,SCT120,0.00,VWS V14.00,2013-03-15 06:33:00,
2013-03-15 02:39:00,29.3,15.2,29.93,West,281,0.0,5.2,55,0.00,,SCT120,0.00,VWS V14.00,2013-03-15 06:39:00,
2013-03-15 02:44:00,29.3,15.4,29.93,NW,315,5.2,6.3,56,0.00,,SCT120,0.00,VWS V14.00,2013-03-15 06:44:00,
2013-03-15 02:49:00,29.3,15.9,29.93,NW,315,0.0,6.3,57,0.00,,SCT120,0.00,VWS V14.00,2013-03-15 06:49:00,
2013-03-15 02:54:00,29.1,15.7,29.93,NW,315,0.0,0.0,57,0.00,,SCT120,0.00,VWS V14.00,2013-03-15 06:54:00,
2013-03-15 02:59:00,29.0,15.2,29.93,NW,304,0.0,3.5,56,0.00,,SCT120,0.00,VWS V14.00,2013-03-15 06:59:00,
2013-03-15 03:04:00,29.0,15.3,29.93,NW,304,0.0,0.0,56,0.00,,FEW070,0.00,VWS V14.00,2013-03-15 07:04:00,
2013-03-15 03:09:00,29.0,15.3,29.93,NW,304,0.0,0.0,56,0.00,,FEW070,0.00,VWS V14.00,2013-03-15 07:09:00,
2013-03-15 03:14:00,28.9,16.3,29.92,NW,304,0.0,0.0,59,0.00,,FEW070,0.00,VWS V14.00,2013-03-15 07:14:00,
2013-03-15 03:19:00,28.8,15.9,29.92,WNW,285,0.0,5.7,58,0.00,,FEW070,0.00,VWS V14.00,2013-03-15 07:19:00,
2013-03-15 03:24:00,28.9,16.0,29.92,WNW,285,0.0,0.0,58,0.00,,FEW070,0.00,VWS V14.00,2013-03-15 07:24:00,
2013-03-15 03:29:00,28.7,15.6,29.92,West,269,0.0,7.3,58,0.00,,FEW070,0.00,VWS V14.00,2013-03-15 07:29:00,
2013-03-15 03:34:00,28.8,15.9,29.92,West,269,0.0,0.0,58,0.00,,FEW070,0.00,VWS V14.00,2013-03-15 07:34:00,
2013-03-15 03:39:00,28.7,16.0,29.92,West,269,0.0,0.0,58,0.00,,FEW070,0.00,VWS V14.00,2013-03-15 07:39:00,
2013-03-15 03:44:00,28.6,15.8,29.92,West,269,0.0,0.0,58,0.00,,FEW070,0.00,VWS V14.00,2013-03-15 07:44:00,
2013-03-15 03:49:00,28.6,16.2,29.92,West,269,0.0,0.0,59,0.00,,FEW070,0.00,VWS V14.00,2013-03-15 07:49:00,
2013-03-15 03:54:00,28.6,16.0,29.92,West,269,0.0,0.0,59,0.00,,FEW070,0.00,VWS V14.00,2013-03-15 07:54:00,
2013-03-15 03:59:00,28.4,16.4,29.91,SW,219,0.0,5.8,60,0.00,,FEW070,0.00,VWS V14.00,2013-03-15 07:59:00,
2013-03-15 04:04:00,28.6,15.9,29.92,SW,219,0.0,0.0,59,0.00,,FEW070,0.00,VWS V14.00,2013-03-15 08:04:00,
2013-03-15 04:09:00,28.4,16.1,29.91,SW,219,0.0,0.0,59,0.00,,FEW070,0.00,VWS V14.00,2013-03-15 08:09:00,
2013-03-15 04:15:00,28.7,16.2,29.92,SW,219,0.0,0.0,59,0.00,,FEW070,0.00,VWS V14.00,2013-03-15 08:15:00,
2013-03-15 04:20:00,28.6,16.3,29.92,SW,219,0.0,0.0,59,0.00,,FEW070,0.00,VWS V14.00,2013-03-15 08:20:00,
2013-03-15 04:25:00,28.5,16.4,29.92,SW,219,0.0,0.0,60,0.00,,FEW070,0.00,VWS V14.00,2013-03-15 08:25:00,
2013-03-15 04:30:00,28.4,16.6,29.92,SW,219,0.0,0.0,61,0.00,,FEW070,0.00,VWS V14.00,2013-03-15 08:30:00,
2013-03-15 04:35:00,28.3,16.2,29.92,WNW,300,0.0,0.0,60,0.00,,FEW070,0.00,VWS V14.00,2013-03-15 08:35:00,
2013-03-15 04:40:00,28.3,16.4,29.92,WNW,300,0.0,0.0,61,0.00,,FEW070,0.00,VWS V14.00,2013-03-15 08:40:00,
2013-03-15 04:45:00,28.2,16.8,29.92,West,281,0.0,0.0,62,0.00,,FEW070,0.00,VWS V14.00,2013-03-15 08:45:00,
2013-03-15 04:50:00,28.1,16.3,29.92,WSW,257,0.0,7.8,61,0.00,,FEW070,0.00,VWS V14.00,2013-03-15 08:50:00,
2013-03-15 04:55:00,28.1,16.1,29.92,WSW,257,0.0,0.0,60,0.00,,FEW070,0.00,VWS V14.00,2013-03-15 08:55:00,
2013-03-15 05:00:00,28.1,16.1,29.92,WSW,257,0.0,0.0,60,0.00,,FEW070,0.00,VWS V14.00,2013-03-15 09:00:00,
2013-03-15 05:05:00,28.1,16.3,29.92,WSW,257,0.0,0.0,61,0.00,,CLR,0.00,VWS V14.00,2013-03-15 09:05:00,
2013-03-15 05:10:00,28.2,16.5,29.92,WSW,257,0.0,0.0,61,0.00,,CLR,0.00,VWS V14.00,2013-03-15 09:10:00,
2013-03-15 05:15:00,28.2,16.3,29.92,WSW,257,0.0,0.0,60,0.00,,CLR,0.00,VWS V14.00,2013-03-15 09:15:00,
2013-03-15 05:20:00,28.0,16.4,29.92,WSW,257,0.0,0.0,61,0.00,,CLR,0.00,VWS V14.00,2013-03-15 09:20:00,
2013-03-15 05:25:00,28.0,16.2,29.92,West,266,0.0,6.6,61,0.00,,CLR,0.00,VWS V14.00,2013-03-15 09:25:00,
2013-03-15 05:30:00,28.0,16.3,29.92,West,266,0.0,0.0,61,0.00,,CLR,0.00,VWS V14.00,2013-03-15 09:30:00,
2013-03-15 05:36:00,28.0,16.0,29.92,NE,35,0.0,5.8,60,0.00,,CLR,0.00,VWS V14.00,2013-03-15 09:36:00,
2013-03-15 05:41:00,28.0,16.0,29.92,WNW,284,0.0,4.4,60,0.00,,CLR,0.00,VWS V14.00,2013-03-15 09:41:00,
2013-03-15 05:46:00,28.1,16.3,29.93,WNW,284,0.0,4.4,61,0.00,,CLR,0.00,VWS V14.00,2013-03-15 09:46:00,
2013-03-15 05:51:00,28.2,16.5,29.93,WNW,284,0.0,0.0,61,0.00,,CLR,0.00,VWS V14.00,2013-03-15 09:51:00,
2013-03-15 05:56:00,28.1,16.4,29.93,WNW,284,0.0,0.0,61,0.00,,CLR,0.00,VWS V14.00,2013-03-15 09:56:00,
2013-03-15 06:02:00,28.1,16.7,29.93,WNW,284,0.0,0.0,62,0.00,,CLR,0.00,VWS V14.00,2013-03-15 10:02:00,
2013-03-15 06:07:00,28.2,16.4,29.94,WNW,284,0.0,0.0,61,0.00,,CLR,0.00,VWS V14.00,2013-03-15 10:07:00,
2013-03-15 06:12:00,28.1,16.1,29.94,WNW,284,0.0,0.0,60,0.00,,CLR,0.00,VWS V14.00,2013-03-15 10:12:00,
2013-03-15 06:17:00,28.1,16.1,29.94,WNW,284,0.0,0.0,60,0.00,,CLR,0.00,VWS V14.00,2013-03-15 10:17:00,
2013-03-15 06:22:00,28.0,16.5,29.94,WNW,284,0.0,0.0,61,0.00,,CLR,0.00,VWS V14.00,2013-03-15 10:22:00,
2013-03-15 06:27:00,28.0,16.7,29.94,WNW,284,0.0,0.0,62,0.00,,CLR,0.00,VWS V14.00,2013-03-15 10:27:00,
2013-03-15 06:32:00,28.0,16.5,29.95,WNW,284,0.0,0.0,61,0.00,,CLR,0.00,VWS V14.00,2013-03-15 10:32:00,
2013-03-15 06:37:00,27.9,16.7,29.95,WNW,284,0.0,0.0,62,0.00,,CLR,0.00,VWS V14.00,2013-03-15 10:37:00,
2013-03-15 06:42:00,27.6,16.3,29.95,WNW,284,0.0,0.0,62,0.00,,CLR,0.00,VWS V14.00,2013-03-15 10:42:00,
2013-03-15 06:48:00,27.6,16.6,29.95,WNW,284,0.0,0.0,63,0.00,,CLR,0.00,VWS V14.00,2013-03-15 10:48:00,
2013-03-15 06:53:00,27.4,16.4,29.94,WNW,284,0.0,0.0,63,0.00,,CLR,0.00,VWS V14.00,2013-03-15 10:53:00,
2013-03-15 06:58:00,27.3,16.5,29.94,WNW,284,0.0,0.0,63,0.00,,CLR,0.00,VWS V14.00,2013-03-15 10:58:00,
2013-03-15 07:03:00,27.2,16.3,29.94,WNW,284,0.0,0.0,63,0.00,,CLR,0.00,VWS V14.00,2013-03-15 11:03:00,
2013-03-15 07:08:00,27.3,16.5,29.94,WNW,284,0.0,0.0,63,0.00,,CLR,0.00,VWS V14.00,2013-03-15 11:08:00,
2013-03-15 07:13:00,27.2,16.5,29.94,WNW,284,0.0,0.0,64,0.00,,CLR,0.00,VWS V14.00,2013-03-15 11:13:00,
2013-03-15 07:18:00,27.0,16.7,29.94,WNW,284,0.0,0.0,65,0.00,,CLR,0.00,VWS V14.00,2013-03-15 11:18:00,
2013-03-15 07:23:00,26.7,16.9,29.94,WNW,284,0.0,0.0,66,0.00,,CLR,0.00,VWS V14.00,2013-03-15 11:23:00,
2013-03-15 07:28:00,26.4,17.0,29.94,WNW,284,0.0,0.0,67,0.00,,CLR,0.00,VWS V14.00,2013-03-15 11:28:00,
2013-03-15 07:33:00,26.1,17.3,29.94,WNW,284,0.0,0.0,69,0.00,,CLR,0.00,VWS V14.00,2013-03-15 11:33:00,
2013-03-15 07:38:00,25.9,17.2,29.94,WNW,284,0.0,0.0,69,0.00,,CLR,0.00,VWS V14.00,2013-03-15 11:38:00,
2013-03-15 07:43:00,25.7,17.2,29.95,WNW,284,0.0,0.0,70,0.00,,CLR,0.00,VWS V14.00,2013-03-15 11:43:00,
2013-03-15 07:48:00,25.5,17.4,29.94,WNW,284,0.0,0.0,71,0.00,,CLR,0.00,VWS V14.00,2013-03-15 11:48:00,
2013-03-15 07:53:00,25.4,17.5,29.94,WNW,284,0.0,0.0,72,0.00,,CLR,0.00,VWS V14.00,2013-03-15 11:53:00,
2013-03-15 07:58:00,25.2,17.5,29.94,WNW,284,0.0,0.0,72,0.00,,CLR,0.00,VWS V14.00,2013-03-15 11:58:00,
2013-03-15 08:03:00,25.1,17.7,29.94,WNW,284,0.0,0.0,73,0.00,,CLR,0.00,VWS V14.00,2013-03-15 12:03:00,
2013-03-15 08:08:00,25.2,17.8,29.94,WNW,284,0.0,0.0,73,0.00,,CLR,0.00,VWS V14.00,2013-03-15 12:08:00,
2013-03-15 08:13:00,25.2,17.7,29.94,WNW,284,0.0,0.0,73,0.00,,CLR,0.00,VWS V14.00,2013-03-15 12:13:00,
2013-03-15 08:18:00,25.6,17.5,29.94,WNW,284,0.0,0.0,71,0.00,,CLR,0.00,VWS V14.00,2013-03-15 12:18:00,
2013-03-15 08:23:00,26.5,17.7,29.94,SW,231,0.0,5.7,69,0.00,,CLR,0.00,VWS V14.00,2013-03-15 12:23:00,
2013-03-15 08:29:00,27.3,18.3,29.94,SW,231,0.0,5.7,68,0.00,,CLR,0.00,VWS V14.00,2013-03-15 12:29:00,
2013-03-15 08:34:00,28.0,18.3,29.94,SW,228,0.0,7.0,66,0.00,,CLR,0.00,VWS V14.00,2013-03-15 12:34:00,
2013-03-15 08:39:00,28.4,18.8,29.94,SW,228,0.0,7.0,67,0.00,,CLR,0.00,VWS V14.00,2013-03-15 12:39:00,
2013-03-15 08:44:00,28.8,19.2,29.94,SW,228,0.0,0.0,67,0.00,,CLR,0.00,VWS V14.00,2013-03-15 12:44:00,
2013-03-15 08:49:00,29.0,18.9,29.94,SW,228,0.0,0.0,65,0.00,,CLR,0.00,VWS V14.00,2013-03-15 12:49:00,
2013-03-15 08:54:00,29.2,18.8,29.94,SW,228,0.0,0.0,65,0.00,,CLR,0.00,VWS V14.00,2013-03-15 12:54:00,
2013-03-15 08:59:00,29.4,19.0,29.94,SW,228,0.0,0.0,65,0.00,,CLR,0.00,VWS V14.00,2013-03-15 12:59:00,
2013-03-15 09:04:00,29.5,18.8,29.94,SW,228,0.0,4.2,64,0.00,,CLR,0.00,VWS V14.00,2013-03-15 13:04:00,
2013-03-15 09:09:00,29.5,18.4,29.94,WSW,250,0.0,8.3,63,0.00,,CLR,0.00,VWS V14.00,2013-03-15 13:09:00,
2013-03-15 09:14:00,29.7,18.6,29.94,West,262,8.1,10.3,63,0.00,,CLR,0.00,VWS V14.00,2013-03-15 13:14:00,
2013-03-15 09:19:00,29.9,19.0,29.93,West,259,0.0,10.3,64,0.00,,CLR,0.00,VWS V14.00,2013-03-15 13:19:00,
2013-03-15 09:24:00,30.2,19.1,29.93,West,259,0.0,0.0,63,0.00,,CLR,0.00,VWS V14.00,2013-03-15 13:24:00,
2013-03-15 09:29:00,30.3,18.8,29.93,WNW,284,0.0,5.2,62,0.00,,CLR,0.00,VWS V14.00,2013-03-15 13:29:00,
2013-03-15 09:34:00,30.4,19.0,29.93,WSW,257,3.0,9.5,62,0.00,,CLR,0.00,VWS V14.00,2013-03-15 13:34:00,
2013-03-15 09:39:00,30.5,19.5,29.93,SSW,201,0.0,9.5,63,0.00,,CLR,0.00,VWS V14.00,2013-03-15 13:39:00,
2013-03-15 09:44:00,30.6,19.7,29.93,SSW,201,0.0,0.0,63,0.00,,CLR,0.00,VWS V14.00,2013-03-15 13:44:00,
2013-03-15 09:50:00,30.5,19.5,29.93,SW,218,0.0,4.1,63,0.00,,CLR,0.00,VWS V14.00,2013-03-15 13:50:00,
2013-03-15 09:55:00,30.7,19.2,29.93,WNW,291,0.0,6.2,62,0.00,,CLR,0.00,VWS V14.00,2013-03-15 13:55:00,
2013-03-15 10:00:00,30.8,18.9,29.93,West,269,4.3,8.3,61,0.00,,CLR,0.00,VWS V14.00,2013-03-15 14:00:00,
2013-03-15 10:05:00,30.7,18.6,29.93,West,269,0.0,0.0,60,0.00,,CLR,0.00,VWS V14.00,2013-03-15 14:05:00,
2013-03-15 10:10:00,30.8,18.2,29.93,SW,222,0.0,11.4,59,0.00,,CLR,0.00,VWS V14.00,2013-03-15 14:10:00,
2013-03-15 10:15:00,30.9,18.4,29.92,WNW,298,0.0,8.4,59,0.00,,CLR,0.00,VWS V14.00,2013-03-15 14:15:00,
2013-03-15 10:20:00,31.2,19.2,29.92,WNW,298,0.0,8.4,61,0.00,,CLR,0.00,VWS V14.00,2013-03-15 14:20:00,
2013-03-15 10:25:00,31.5,19.4,29.92,WNW,298,0.0,0.0,60,0.00,,CLR,0.00,VWS V14.00,2013-03-15 14:25:00,
2013-03-15 10:30:00,31.9,19.6,29.91,West,266,0.0,6.5,60,0.00,,CLR,0.00,VWS V14.00,2013-03-15 14:30:00,
2013-03-15 10:35:00,31.9,18.8,29.91,SW,222,0.0,6.8,58,0.00,,CLR,0.00,VWS V14.00,2013-03-15 14:35:00,
2013-03-15 10:40:00,31.8,18.9,29.91,SSW,198,0.0,11.1,58,0.00,,CLR,0.00,VWS V14.00,2013-03-15 14:40:00,
2013-03-15 10:45:00,32.1,19.7,29.91,SSW,198,0.0,0.0,60,0.00,,CLR,0.00,VWS V14.00,2013-03-15 14:45:00,
2013-03-15 10:50:00,32.3,19.5,29.90,SSW,198,0.0,0.0,59,0.00,,CLR,0.00,VWS V14.00,2013-03-15 14:50:00,
2013-03-15 10:55:00,32.5,18.8,29.90,SSW,198,0.0,0.0,57,0.00,,CLR,0.00,VWS V14.00,2013-03-15 14:55:00,
2013-03-15 11:00:00,33.0,19.8,29.90,SSW,198,0.0,0.0,58,0.00,,CLR,0.00,VWS V14.00,2013-03-15 15:00:00,
2013-03-15 11:06:00,33.4,19.6,29.90,SSE,165,0.0,4.2,57,0.00,,CLR,0.00,VWS V14.00,2013-03-15 15:06:00,
2013-03-15 11:11:00,33.8,19.9,29.90,SSE,165,0.0,0.0,56,0.00,,CLR,0.00,VWS V14.00,2013-03-15 15:11:00,
2013-03-15 11:16:00,33.7,18.4,29.89,WSW,253,0.0,7.0,53,0.00,,CLR,0.00,VWS V14.00,2013-03-15 15:16:00,
2013-03-15 11:21:00,33.9,20.0,29.89,West,267,0.0,0.0,56,0.00,,CLR,0.00,VWS V14.00,2013-03-15 15:21:00,
2013-03-15 11:26:00,34.2,18.7,29.89,WNW,301,0.0,6.0,53,0.00,,CLR,0.00,VWS V14.00,2013-03-15 15:26:00,
2013-03-15 11:31:00,34.6,19.5,29.88,WNW,301,0.0,0.0,54,0.00,,CLR,0.00,VWS V14.00,2013-03-15 15:31:00,
2013-03-15 11:36:00,34.8,19.6,29.87,WNW,301,0.0,0.0,53,0.00,,CLR,0.00,VWS V14.00,2013-03-15 15:36:00,
2013-03-15 11:41:00,35.5,20.7,29.87,SW,225,7.6,7.6,54,0.00,,CLR,0.00,VWS V14.00,2013-03-15 15:41:00,
2013-03-15 11:47:00,36.1,19.4,29.87,SW,225,0.0,8.6,50,0.00,,CLR,0.00,VWS V14.00,2013-03-15 15:47:00,
2013-03-15 11:52:00,36.6,19.9,29.87,SSW,195,0.0,0.0,50,0.00,,CLR,0.00,VWS V14.00,2013-03-15 15:52:00,
2013-03-15 11:57:00,37.2,19.7,29.86,SSW,195,0.0,0.0,49,0.00,,CLR,0.00,VWS V14.00,2013-03-15 15:57:00,
2013-03-15 12:02:00,37.9,19.4,29.86,SSW,195,0.0,0.0,47,0.00,,CLR,0.00,VWS V14.00,2013-03-15 16:02:00,
2013-03-15 12:07:00,38.0,20.6,29.86,West,273,0.0,8.4,49,0.00,,CLR,0.00,VWS V14.00,2013-03-15 16:07:00,
2013-03-15 12:12:00,38.4,20.5,29.85,West,273,0.0,0.0,48,0.00,,CLR,0.00,VWS V14.00,2013-03-15 16:12:00,
2013-03-15 12:17:00,38.4,19.7,29.85,West,269,0.0,9.1,46,0.00,,CLR,0.00,VWS V14.00,2013-03-15 16:17:00,
2013-03-15 12:22:00,38.7,20.6,29.85,SW,236,0.0,0.0,48,0.00,,CLR,0.00,VWS V14.00,2013-03-15 16:22:00,
2013-03-15 12:27:00,39.0,20.5,29.84,SSW,197,2.6,7.1,47,0.00,,CLR,0.00,VWS V14.00,2013-03-15 16:27:00,
2013-03-15 12:32:00,39.2,19.6,29.84,SSW,197,0.0,0.0,45,0.00,,CLR,0.00,VWS V14.00,2013-03-15 16:32:00,
2013-03-15 12:37:00,39.5,22.2,29.83,NW,309,0.0,10.0,50,0.00,,CLR,0.00,VWS V14.00,2013-03-15 16:37:00,
2013-03-15 12:42:00,39.4,21.0,29.83,WSW,246,0.0,5.5,47,0.00,,CLR,0.00,VWS V14.00,2013-03-15 16:42:00,
2013-03-15 12:47:00,39.3,20.0,29.83,West,262,0.0,10.2,45,0.00,,CLR,0.00,VWS V14.00,2013-03-15 16:47:00,
2013-03-15 12:53:00,39.5,21.2,29.82,WSW,248,0.0,6.5,48,0.00,,CLR,0.00,VWS V14.00,2013-03-15 16:53:00,
2013-03-15 12:58:00,40.1,22.2,29.82,SE,128,0.0,7.1,48,0.00,,CLR,0.00,VWS V14.00,2013-03-15 16:58:00,
2013-03-15 13:03:00,40.4,22.5,29.82,SE,128,0.0,0.0,48,0.00,,FEW250,0.00,VWS V14.00,2013-03-15 17:03:00,
2013-03-15 13:08:00,40.7,21.4,29.82,SSW,197,0.0,8.4,46,0.00,,FEW250,0.00,VWS V14.00,2013-03-15 17:08:00,
2013-03-15 13:13:00,40.5,22.3,29.82,WSW,257,3.4,9.1,48,0.00,,FEW250,0.00,VWS V14.00,2013-03-15 17:13:00,
2013-03-15 13:18:00,39.8,23.1,29.82,SSW,197,3.2,11.1,51,0.00,,FEW250,0.00,VWS V14.00,2013-03-15 17:18:00,
2013-03-15 13:23:00,39.7,23.2,29.81,WSW,245,5.0,12.5,51,0.00,,FEW250,0.00,VWS V14.00,2013-03-15 17:23:00,
2013-03-15 13:28:00,39.4,23.2,29.82,WSW,240,4.3,12.5,52,0.00,,FEW250,0.00,VWS V14.00,2013-03-15 17:28:00,
2013-03-15 13:33:00,39.4,22.8,29.81,West,260,0.0,6.8,51,0.00,,FEW250,0.00,VWS V14.00,2013-03-15 17:33:00,
2013-03-15 13:38:00,39.7,23.8,29.81,SSW,201,3.4,6.8,53,0.00,,FEW250,0.00,VWS V14.00,2013-03-15 17:38:00,
2013-03-15 13:43:00,39.6,23.9,29.81,SSW,210,7.2,15.3,53,0.00,,FEW250,0.00,VWS V14.00,2013-03-15 17:43:00,
2013-03-15 13:48:00,39.2,23.2,29.80,NNE,15,0.0,15.3,52,0.00,,FEW250,0.00,VWS V14.00,2013-03-15 17:48:00,
2013-03-15 13:53:00,40.0,23.9,29.80,South,179,0.0,12.2,52,0.00,,FEW250,0.00,VWS V14.00,2013-03-15 17:53:00,
2013-03-15 13:58:00,40.6,25.2,29.79,South,190,0.0,12.2,54,0.00,,FEW250,0.00,VWS V14.00,2013-03-15 17:58:00,
2013-03-15 14:03:00,40.7,24.1,29.79,SW,219,0.0,7.7,51,0.00,,FEW250,0.00,VWS V14.00,2013-03-15 18:03:00,
2013-03-15 14:09:00,40.5,25.2,29.79,NNW,332,0.0,8.9,54,0.00,,FEW250,0.00,VWS V14.00,2013-03-15 18:09:00,
2013-03-15 14:14:00,40.8,25.6,29.78,NNW,332,0.0,3.4,54,0.00,,FEW250,0.00,VWS V14.00,2013-03-15 18:14:00,
2013-03-15 14:19:00,41.7,26.0,29.78,West,273,0.0,6.1,53,0.00,,FEW250,0.00,VWS V14.00,2013-03-15 18:19:00,
2013-03-15 14:24:00,41.5,26.7,29.78,SSW,207,0.0,18.1,55,0.00,,FEW250,0.00,VWS V14.00,2013-03-15 18:24:00,
2013-03-15 14:29:00,41.4,27.3,29.77,WSW,252,0.0,18.1,57,0.00,,FEW250,0.00,VWS V14.00,2013-03-15 18:29:00,
2013-03-15 14:34:00,41.0,26.5,29.78,North,353,0.0,10.2,56,0.00,,FEW250,0.00,VWS V14.00,2013-03-15 18:34:00,
2013-03-15 14:39:00,40.3,27.7,29.78,SSE,162,0.0,14.2,60,0.00,,FEW250,0.00,VWS V14.00,2013-03-15 18:39:00,
2013-03-15 14:44:00,39.8,27.5,29.78,SSW,211,6.0,15.6,61,0.00,,FEW250,0.00,VWS V14.00,2013-03-15 18:44:00,
2013-03-15 14:49:00,39.3,27.6,29.77,SW,233,5.3,15.8,62,0.00,,FEW250,0.00,VWS V14.00,2013-03-15 18:49:00,
2013-03-15 14:54:00,39.0,27.6,29.77,West,266,0.0,8.0,63,0.00,,FEW250,0.00,VWS V14.00,2013-03-15 18:54:00,
2013-03-15 14:59:00,39.1,27.7,29.77,WSW,242,0.0,11.9,63,0.00,,FEW250,0.00,VWS V14.00,2013-03-15 18:59:00,
2013-03-15 15:04:00,39.2,28.1,29.77,SSW,201,5.5,7.0,64,0.00,,SCT250,0.00,VWS V14.00,2013-03-15 19:04:00,
2013-03-15 15:09:00,38.6,28.0,29.76,NNW,343,0.0,16.5,65,0.00,,SCT250,0.00,VWS V14.00,2013-03-15 19:09:00,
2013-03-15 15:14:00,38.6,28.8,29.75,SSW,212,0.0,7.0,68,0.00,,SCT250,0.00,VWS V14.00,2013-03-15 19:14:00,
2013-03-15 15:19:00,38.7,28.1,29.75,SE,134,0.0,10.9,65,0.00,,SCT250,0.00,VWS V14.00,2013-03-15 19:19:00,
2013-03-15 15:24:00,38.8,28.3,29.75,WSW,242,0.0,8.0,66,0.00,,SCT250,0.00,VWS V14.00,2013-03-15 19:24:00,
2013-03-15 15:29:00,38.9,28.3,29.74,SSW,197,6.8,8.5,65,0.00,,SCT250,0.00,VWS V14.00,2013-03-15 19:29:00,
2013-03-15 15:34:00,38.9,29.3,29.75,SSE,153,0.0,10.9,68,0.00,,SCT250,0.00,VWS V14.00,2013-03-15 19:34:00,
2013-03-15 15:39:00,38.8,28.8,29.75,WNW,285,0.0,10.9,67,0.00,,SCT250,0.00,VWS V14.00,2013-03-15 19:39:00,
2013-03-15 15:44:00,38.7,28.7,29.74,West,259,0.0,13.2,67,0.00,,SCT250,0.00,VWS V14.00,2013-03-15 19:44:00,
2013-03-15 15:49:00,38.8,29.2,29.74,West,259,0.0,13.2,68,0.00,,SCT250,0.00,VWS V14.00,2013-03-15 19:49:00,
2013-03-15 15:55:00,38.9,29.7,29.74,West,259,0.0,0.0,69,0.00,,SCT250,0.00,VWS V14.00,2013-03-15 19:55:00,
2013-03-15 16:00:00,38.9,29.3,29.74,West,259,0.0,0.0,68,0.00,,SCT250,0.00,VWS V14.00,2013-03-15 20:00:00,
2013-03-15 16:05:00,38.8,29.6,29.73,WSW,249,0.0,7.0,69,0.00,,SCT250,0.00,VWS V14.00,2013-03-15 20:05:00,
2013-03-15 16:10:00,38.7,29.5,29.74,West,264,0.0,7.6,69,0.00,,SCT250,0.00,VWS V14.00,2013-03-15 20:10:00,
2013-03-15 16:15:00,38.8,29.0,29.73,WNW,291,0.0,7.0,68,0.00,,SCT250,0.00,VWS V14.00,2013-03-15 20:15:00,
2013-03-15 16:20:00,39.0,29.5,29.73,WNW,291,0.0,7.0,68,0.00,,SCT250,0.00,VWS V14.00,2013-03-15 20:20:00,
2013-03-15 16:25:00,39.2,29.4,29.73,South,186,0.0,9.5,68,0.00,,SCT250,0.00,VWS V14.00,2013-03-15 20:25:00,
2013-03-15 16:30:00,39.3,29.3,29.73,SSW,202,0.0,9.5,67,0.00,,SCT250,0.00,VWS V14.00,2013-03-15 20:30:00,
2013-03-15 16:35:00,39.4,28.9,29.72,WNW,298,0.0,12.6,66,0.00,,SCT250,0.00,VWS V14.00,2013-03-15 20:35:00,
2013-03-15 16:40:00,39.6,29.5,29.72,NNW,328,0.0,12.6,67,0.00,,SCT250,0.00,VWS V14.00,2013-03-15 20:40:00,
2013-03-15 16:45:00,39.8,28.9,29.72,WSW,250,6.5,8.9,65,0.00,,SCT250,0.00,VWS V14.00,2013-03-15 20:45:00,
2013-03-15 16:50:00,39.8,28.8,29.72,West,266,0.0,12.2,64,0.00,,SCT250,0.00,VWS V14.00,2013-03-15 20:50:00,
2013-03-15 16:55:00,39.9,29.1,29.72,SW,219,0.0,9.3,65,0.00,,SCT250,0.00,VWS V14.00,2013-03-15 20:55:00,
2013-03-15 17:00:00,40.1,28.8,29.72,WNW,294,0.0,9.3,64,0.00,,SCT250,0.00,VWS V14.00,2013-03-15 21:00:00,
2013-03-15 17:05:00,40.2,29.2,29.71,WNW,294,0.0,3.5,65,0.00,,SCT250,0.00,VWS V14.00,2013-03-15 21:05:00,
2013-03-15 17:10:00,40.2,28.6,29.71,South,179,0.0,10.1,63,0.00,,SCT250,0.00,VWS V14.00,2013-03-15 21:10:00,
2013-03-15 17:15:00,40.1,28.9,29.72,WSW,248,0.0,8.8,64,0.00,,SCT250,0.00,VWS V14.00,2013-03-15 21:15:00,
2013-03-15 17:20:00,40.1,29.2,29.72,NW,315,0.0,8.8,65,0.00,,SCT250,0.00,VWS V14.00,2013-03-15 21:20:00,
2013-03-15 17:25:00,40.2,29.3,29.71,WNW,301,6.1,6.8,65,0.00,,SCT250,0.00,VWS V14.00,2013-03-15 21:25:00,
2013-03-15 17:31:00,40.1,29.5,29.72,SSW,204,0.0,0.0,66,0.00,,SCT250,0.00,VWS V14.00,2013-03-15 21:31:00,
2013-03-15 17:36:00,40.0,29.9,29.71,West,278,0.0,10.8,67,0.00,,SCT250,0.00,VWS V14.00,2013-03-15 21:36:00,
2013-03-15 17:41:00,40.0,30.2,29.72,West,278,9.6,11.5,68,0.00,,SCT250,0.00,VWS V14.00,2013-03-15 21:41:00,
2013-03-15 17:46:00,40.0,30.3,29.72,SSW,198,0.0,11.5,68,0.00,,SCT250,0.00,VWS V14.00,2013-03-15 21:46:00,
2013-03-15 17:51:00,39.9,30.1,29.72,SSW,201,8.4,8.4,68,0.00,,SCT250,0.00,VWS V14.00,2013-03-15 21:51:00,
2013-03-15 17:56:00,39.9,30.2,29.72,SSW,207,0.0,8.9,68,0.00,,SCT250,0.00,VWS V14.00,2013-03-15 21:56:00,
2013-03-15 18:02:00,39.9,30.3,29.72,West,273,0.0,0.0,68,0.00,,SCT250,0.00,VWS V14.00,2013-03-15 22:02:00,
2013-03-15 18:07:00,39.8,30.4,29.71,SW,236,0.0,11.1,69,0.00,,SCT250,0.00,VWS V14.00,2013-03-15 22:07:00,
2013-03-15 18:12:00,39.9,30.8,29.72,WSW,239,0.0,0.0,70,0.00,,SCT250,0.00,VWS V14.00,2013-03-15 22:12:00,
2013-03-15 18:17:00,39.8,30.7,29.72,SW,235,5.2,8.4,70,0.00,,SCT250,0.00,VWS V14.00,2013-03-15 22:17:00,
2013-03-15 18:22:00,39.9,30.7,29.72,West,267,0.0,0.0,69,0.00,,SCT250,0.00,VWS V14.00,2013-03-15 22:22:00,
2013-03-15 18:27:00,39.8,30.7,29.72,WSW,240,0.0,7.7,70,0.00,,SCT250,0.00,VWS V14.00,2013-03-15 22:27:00,
2013-03-15 18:32:00,39.8,30.6,29.72,NNE,13,4.4,5.0,69,0.00,,SCT250,0.00,VWS V14.00,2013-03-15 22:32:00,
2013-03-15 18:37:00,39.9,30.5,29.72,West,277,0.0,7.5,69,0.00,,SCT250,0.00,VWS V14.00,2013-03-15 22:37:00,
2013-03-15 18:42:00,40.0,31.1,29.72,West,277,0.0,0.0,70,0.00,,SCT250,0.00,VWS V14.00,2013-03-15 22:42:00,
2013-03-15 18:48:00,40.0,31.0,29.72,South,187,0.0,5.9,70,0.00,,SCT250,0.00,VWS V14.00,2013-03-15 22:48:00,
2013-03-15 18:53:00,39.9,30.8,29.72,WSW,257,0.0,6.4,70,0.00,,SCT250,0.00,VWS V14.00,2013-03-15 22:53:00,
2013-03-15 18:58:00,40.0,30.9,29.72,SSW,202,7.7,8.9,70,0.00,,SCT250,0.00,VWS V14.00,2013-03-15 22:58:00,
2013-03-15 19:03:00,40.0,31.0,29.72,SW,233,0.0,0.0,70,0.00,,SCT250,0.00,VWS V14.00,2013-03-15 23:03:00,
2013-03-15 19:08:00,40.1,31.1,29.73,SW,232,0.0,9.6,70,0.00,,SCT250,0.00,VWS V14.00,2013-03-15 23:08:00,
2013-03-15 19:13:00,40.1,31.3,29.72,SSW,197,5.3,6.0,70,0.00,,SCT250,0.00,VWS V14.00,2013-03-15 23:13:00,
2013-03-15 19:18:00,40.1,31.5,29.73,SW,219,0.0,6.0,71,0.00,,SCT250,0.00,VWS V14.00,2013-03-15 23:18:00,
2013-03-15 19:23:00,40.2,31.2,29.73,SW,219,0.0,0.0,70,0.00,,SCT250,0.00,VWS V14.00,2013-03-15 23:23:00,
2013-03-15 19:28:00,40.2,31.2,29.74,WSW,253,0.0,7.6,70,0.00,,SCT250,0.00,VWS V14.00,2013-03-15 23:28:00,
2013-03-15 19:33:00,40.2,31.2,29.74,WSW,246,0.0,5.0,70,0.00,,SCT250,0.00,VWS V14.00,2013-03-15 23:33:00,
2013-03-15 19:38:00,40.2,31.5,29.74,SW,231,0.0,5.0,71,0.00,,SCT250,0.00,VWS V14.00,2013-03-15 23:38:00,
2013-03-15 19:43:00,40.2,31.5,29.74,SW,231,0.0,0.0,71,0.00,,SCT250,0.00,VWS V14.00,2013-03-15 23:43:00,
2013-03-15 19:48:00,40.1,31.6,29.74,SW,231,0.0,0.0,72,0.00,,SCT250,0.00,VWS V14.00,2013-03-15 23:48:00,
2013-03-15 19:53:00,39.9,31.6,29.74,SW,214,0.0,0.0,72,0.00,,SCT250,0.00,VWS V14.00,2013-03-15 23:53:00,
2013-03-15 19:58:00,39.8,31.9,29.74,SW,214,0.0,0.0,73,0.00,,SCT250,0.00,VWS V14.00,2013-03-15 23:58:00,
2013-03-15 20:04:00,39.8,31.9,29.74,SW,214,0.0,0.0,73,0.00,,SCT250,0.00,VWS V14.00,2013-03-16 00:04:00,
2013-03-15 20:09:00,39.7,31.9,29.75,SW,214,0.0,0.0,73,0.00,,SCT250,0.00,VWS V14.00,2013-03-16 00:09:00,
2013-03-15 20:14:00,39.6,31.9,29.75,WNW,287,0.0,3.2,74,0.00,,SCT250,0.00,VWS V14.00,2013-03-16 00:14:00,
2013-03-15 20:19:00,39.5,32.0,29.75,WNW,287,0.0,3.2,74,0.00,,SCT250,0.00,VWS V14.00,2013-03-16 00:19:00,
2013-03-15 20:24:00,39.5,32.1,29.75,WNW,287,0.0,0.0,74,0.00,,SCT250,0.00,VWS V14.00,2013-03-16 00:24:00,
2013-03-15 20:29:00,39.3,32.0,29.75,WNW,287,0.0,0.0,75,0.00,,SCT250,0.00,VWS V14.00,2013-03-16 00:29:00,
2013-03-15 20:34:00,39.2,32.2,29.75,WNW,287,0.0,0.0,76,0.00,,SCT250,0.00,VWS V14.00,2013-03-16 00:34:00,
2013-03-15 20:39:00,39.3,32.4,29.75,WNW,287,0.0,0.0,76,0.00,,SCT250,0.00,VWS V14.00,2013-03-16 00:39:00,
2013-03-15 20:44:00,39.3,32.4,29.75,WNW,287,0.0,0.0,76,0.00,,SCT250,0.00,VWS V14.00,2013-03-16 00:44:00,
2013-03-15 20:49:00,39.1,32.4,29.75,West,274,5.0,7.8,77,0.00,,SCT250,0.00,VWS V14.00,2013-03-16 00:49:00,
2013-03-15 20:54:00,39.3,32.5,29.75,SW,232,0.0,8.5,76,0.00,,SCT250,0.00,VWS V14.00,2013-03-16 00:54:00,
2013-03-15 20:59:00,39.4,32.5,29.75,SW,232,0.0,8.5,76,0.00,,SCT250,0.00,VWS V14.00,2013-03-16 00:59:00,
2013-03-15 21:04:00,39.2,32.6,29.75,SW,229,0.0,4.4,77,0.00,,FEW250,0.00,VWS V14.00,2013-03-16 01:04:00,
2013-03-15 21:09:00,39.2,32.5,29.75,SW,229,0.0,4.4,76,0.00,,FEW250,0.00,VWS V14.00,2013-03-16 01:09:00,
2013-03-15 21:14:00,39.0,32.5,29.76,West,263,3.2,6.2,77,0.00,,FEW250,0.00,VWS V14.00,2013-03-16 01:14:00,
2013-03-15 21:19:00,39.0,32.4,29.75,WNW,285,0.0,6.2,77,0.00,,FEW250,0.00,VWS V14.00,2013-03-16 01:19:00,
2013-03-15 21:24:00,38.8,32.2,29.75,WNW,300,4.3,7.2,77,0.00,,FEW250,0.00,VWS V14.00,2013-03-16 01:24:00,
2013-03-15 21:29:00,38.6,32.1,29.75,WSW,250,10.4,10.4,77,0.00,,FEW250,0.00,VWS V14.00,2013-03-16 01:29:00,
2013-03-15 21:34:00,38.6,31.9,29.75,SW,235,3.4,9.5,77,0.00,,FEW250,0.00,VWS V14.00,2013-03-16 01:34:00,
2013-03-15 21:39:00,38.6,31.7,29.75,SSW,202,0.0,9.5,76,0.00,,FEW250,0.00,VWS V14.00,2013-03-16 01:39:00,
2013-03-15 21:44:00,38.6,31.7,29.76,West,266,0.0,3.4,76,0.00,,FEW250,0.00,VWS V14.00,2013-03-16 01:44:00,
2013-03-15 21:49:00,38.6,31.3,29.76,NNW,330,0.0,10.0,75,0.00,,FEW250,0.00,VWS V14.00,2013-03-16 01:49:00,
2013-03-15 21:55:00,38.7,31.2,29.76,SW,217,0.0,9.6,74,0.00,,FEW250,0.00,VWS V14.00,2013-03-16 01:55:00,
2013-03-15 22:00:00,38.6,31.0,29.76,WSW,242,0.0,9.6,74,0.00,,FEW250,0.00,VWS V14.00,2013-03-16 02:00:00,
2013-03-15 22:05:00,38.6,30.8,29.76,NW,318,0.0,9.9,73,0.00,,FEW250,0.00,VWS V14.00,2013-03-16 02:05:00,
2013-03-15 22:10:00,38.6,30.9,29.76,South,191,0.0,9.9,74,0.00,,FEW250,0.00,VWS V14.00,2013-03-16 02:10:00,
2013-03-15 22:15:00,38.4,30.7,29.76,NW,311,0.0,6.5,74,0.00,,FEW250,0.00,VWS V14.00,2013-03-16 02:15:00,
2013-03-15 22:20:00,38.2,30.5,29.76,South,183,0.0,9.6,74,0.00,,FEW250,0.00,VWS V14.00,2013-03-16 02:20:00,
2013-03-15 22:25:00,38.2,30.3,29.76,NNW,343,0.0,11.0,73,0.00,,FEW250,0.00,VWS V14.00,2013-03-16 02:25:00,
2013-03-15 22:30:00,38.2,30.0,29.76,WSW,255,3.4,11.0,72,0.00,,FEW250,0.00,VWS V14.00,2013-03-16 02:30:00,
2013-03-15 22:35:00,38.2,29.9,29.76,WSW,246,0.0,10.1,72,0.00,,FEW250,0.00,VWS V14.00,2013-03-16 02:35:00,
2013-03-15 22:40:00,38.0,29.8,29.76,NW,309,4.6,10.1,72,0.00,,FEW250,0.00,VWS V14.00,2013-03-16 02:40:00,
2013-03-15 22:45:00,38.0,29.5,29.76,West,271,2.9,7.6,71,0.00,,FEW250,0.00,VWS V14.00,2013-03-16 02:45:00,
2013-03-15 22:50:00,37.9,29.3,29.76,West,276,0.0,9.3,71,0.00,,FEW250,0.00,VWS V14.00,2013-03-16 02:50:00,
2013-03-15 22:55:00,38.0,29.1,29.76,WSW,250,4.6,6.6,70,0.00,,FEW250,0.00,VWS V14.00,2013-03-16 02:55:00,
2013-03-15 22:59:00,37.7,27.0,29.77,NNW,342,0.0,13.6,65,0.00,,FEW250,0.00,VWS V14.00,2013-03-16 02:59:00,
2013-03-15 23:00:00,37.9,28.8,29.77,WSW,248,0.0,9.6,70,0.00,,FEW250,0.00,VWS V14.00,2013-03-16 03:00:00,
2013-03-15 23:01:00,37.7,27.3,29.77,WSW,246,0.0,5.0,66,0.00,,FEW250,0.00,VWS V14.00,2013-03-16 03:01:00,
2013-03-15 23:02:00,37.8,27.3,29.77,WSW,246,0.0,5.0,66,0.00,,FEW250,0.00,VWS V14.00,2013-03-16 03:02:00,
2013-03-15 23:03:00,37.8,27.6,29.76,WSW,246,0.0,5.0,66,0.00,,SCT250,0.00,VWS V14.00,2013-03-16 03:03:00,
2013-03-15 23:04:00,37.7,27.3,29.77,WSW,246,0.0,5.0,66,0.00,,SCT250,0.00,VWS V14.00,2013-03-16 03:04:00,
2013-03-15 23:05:00,38.0,28.8,29.76,WNW,298,0.0,9.8,69,0.00,,FEW250,0.00,VWS V14.00,2013-03-16 03:05:00,
2013-03-15 23:06:00,37.7,26.9,29.77,NNE,24,0.0,5.4,65,0.00,,SCT250,0.00,VWS V14.00,2013-03-16 03:06:00,
2013-03-15 23:07:00,37.7,26.9,29.76,NNE,24,0.0,5.4,65,0.00,,SCT250,0.00,VWS V14.00,2013-03-16 03:07:00,
2013-03-15 23:08:00,37.7,27.0,29.76,NNE,24,0.0,5.4,65,0.00,,SCT250,0.00,VWS V14.00,2013-03-16 03:08:00,
2013-03-15 23:09:00,37.7,27.0,29.77,WSW,245,0.0,5.4,65,0.00,,SCT250,0.00,VWS V14.00,2013-03-16 03:09:00,
2013-03-15 23:10:00,37.9,28.3,29.76,West,267,0.0,11.2,68,0.00,,FEW250,0.00,VWS V14.00,2013-03-16 03:10:00,
2013-03-15 23:11:00,37.8,27.3,29.76,WSW,245,5.1,5.1,66,0.00,,SCT250,0.00,VWS V14.00,2013-03-16 03:11:00,
2013-03-15 23:12:00,37.8,26.9,29.77,West,266,7.4,7.5,64,0.00,,SCT250,0.00,VWS V14.00,2013-03-16 03:12:00,
2013-03-15 23:13:00,37.8,26.8,29.76,West,276,0.0,10.3,64,0.00,,SCT250,0.00,VWS V14.00,2013-03-16 03:13:00,
2013-03-15 23:14:00,37.8,27.0,29.76,West,276,0.0,10.3,65,0.00,,SCT250,0.00,VWS V14.00,2013-03-16 03:14:00,
2013-03-15 23:15:00,37.9,28.3,29.76,West,267,0.0,0.0,68,0.00,,FEW250,0.00,VWS V14.00,2013-03-16 03:15:00,
2013-03-15 23:16:00,37.8,27.2,29.77,West,276,0.0,10.3,65,0.00,,SCT250,0.00,VWS V14.00,2013-03-16 03:16:00,
2013-03-15 23:17:00,37.8,27.0,29.77,WSW,249,5.9,10.3,65,0.00,,SCT250,0.00,VWS V14.00,2013-03-16 03:17:00,
2013-03-15 23:20:00,37.9,28.3,29.76,West,270,0.0,9.4,68,0.00,,FEW250,0.00,VWS V14.00,2013-03-16 03:20:00,
2013-03-15 23:25:00,37.8,28.1,29.76,West,270,0.0,3.5,68,0.00,,FEW250,0.00,VWS V14.00,2013-03-16 03:25:00,
2013-03-15 23:30:00,37.7,28.1,29.76,NNW,329,0.0,3.5,68,0.00,,FEW250,0.00,VWS V14.00,2013-03-16 03:30:00,
2013-03-15 23:35:00,37.6,27.3,29.76,NW,316,0.0,9.2,66,0.00,,FEW250,0.00,VWS V14.00,2013-03-16 03:35:00,
2013-03-15 23:40:00,37.8,27.8,29.76,WSW,242,0.0,0.0,67,0.00,,FEW250,0.00,VWS V14.00,2013-03-16 03:40:00,
2013-03-15 23:45:00,37.7,27.5,29.77,NW,325,3.4,5.5,66,0.00,,FEW250,0.00,VWS V14.00,2013-03-16 03:45:00,
2013-03-15 23:51:00,37.6,27.5,29.77,WSW,240,0.0,3.4,67,0.00,,FEW250,0.00,VWS V14.00,2013-03-16 03:51:00,
2013-03-15 23:56:00,37.6,27.3,29.77,WNW,290,3.0,9.1,66,0.00,,FEW250,0.00,VWS V14.00,2013-03-16 03:56:00,